Time;durP1;ratioP1;P1;durP2;ratioP2;P2;SDS_P1;SDS_P2;PMS_P1;PMS_P2;Temp;Humidity;BMP_temperature;BMP_pressure;BME280_temperature;BME280_humidity;BME280_pressure;Samples;Min_cycle;Max_cycle;Signal;HPM_P1;HPM_P2
2023/10/28 00:00:58;;;;;;;9.47;7.07;;;;;;;-1.01;100.00;100093.91;4954122;29;20133;-64
2023/10/28 00:03:27;;;;;;;14.43;8.40;;;;;;;-1.04;100.00;100094.97;4953711;29;20035;-65
2023/10/28 00:05:52;;;;;;;12.73;7.30;;;;;;;-1.13;100.00;100077.31;4937030;29;20271;-65
2023/10/28 00:08:18;;;;;;;11.40;7.93;;;;;;;-1.17;100.00;100060.16;4953374;28;20442;-64
2023/10/28 00:10:48;;;;;;;10.87;7.83;;;;;;;-1.07;100.00;100081.28;4936362;29;20394;-63
2023/10/28 00:13:14;;;;;;;12.03;7.40;;;;;;;-1.18;100.00;100068.09;4953961;29;20398;-64
2023/10/28 00:15:40;;;;;;;10.73;8.00;;;;;;;-1.21;100.00;100069.13;4954515;29;20405;-64
2023/10/28 00:18:08;;;;;;;12.07;8.93;;;;;;;-1.30;100.00;100046.25;4953311;29;20765;-66
2023/10/28 00:20:35;;;;;;;12.60;8.07;;;;;;;-1.37;100.00;100052.84;4953890;29;20035;-63
2023/10/28 00:23:03;;;;;;;11.80;7.90;;;;;;;-1.35;100.00;100061.41;4953267;29;20039;-65
2023/10/28 00:25:31;;;;;;;10.77;7.40;;;;;;;-1.37;100.00;100045.00;4936437;29;20274;-63
2023/10/28 00:27:58;;;;;;;12.50;7.93;;;;;;;-1.15;100.00;100071.34;4953663;29;20696;-64
2023/10/28 00:30:24;;;;;;;11.37;7.50;;;;;;;-1.11;100.00;100071.97;4953265;29;20279;-63
2023/10/28 00:32:52;;;;;;;9.10;7.23;;;;;;;-1.35;100.00;100040.53;4954018;29;20341;-62
2023/10/28 00:35:18;;;;;;;14.63;9.07;;;;;;;-1.27;100.00;100053.88;4920497;29;20357;-63
2023/10/28 00:37:45;;;;;;;11.00;8.37;;;;;;;-1.19;100.00;100072.47;4953272;29;20639;-64
2023/10/28 00:40:11;;;;;;;11.90;8.97;;;;;;;-1.21;100.00;100074.38;4939105;29;20278;-68
2023/10/28 00:42:37;;;;;;;12.37;6.63;;;;;;;-1.45;100.00;100031.63;4937708;29;20271;-65
2023/10/28 00:45:03;;;;;;;11.30;7.67;;;;;;;-1.40;100.00;100056.50;4936239;29;20619;-63
2023/10/28 00:47:31;;;;;;;11.13;7.57;;;;;;;-1.29;100.00;100055.78;4935927;29;20278;-64
2023/10/28 00:49:58;;;;;;;12.47;7.13;;;;;;;-1.38;100.00;100035.50;4953738;29;20278;-63
2023/10/28 00:52:24;;;;;;;11.67;7.97;;;;;;;-1.27;100.00;100044.28;4953406;29;20318;-63
2023/10/28 00:54:51;;;;;;;11.60;7.53;;;;;;;-1.29;100.00;100051.38;4953230;29;20322;-64
2023/10/28 00:57:17;;;;;;;11.77;7.73;;;;;;;-1.35;100.00;100032.69;4953255;29;20050;-65
2023/10/28 00:59:43;;;;;;;12.83;7.53;;;;;;;-1.25;100.00;100046.78;4953268;29;20286;-64
2023/10/28 01:02:10;;;;;;;16.00;7.90;;;;;;;-1.25;100.00;100057.22;4953145;29;20328;-64
2023/10/28 01:04:37;;;;;;;9.70;7.13;;;;;;;-1.48;100.00;100003.09;4953059;29;21312;-66
2023/10/28 01:07:02;;;;;;;12.07;8.00;;;;;;;-1.29;100.00;100047.94;4953661;29;20298;-64
2023/10/28 01:09:28;;;;;;;8.90;6.80;;;;;;;-1.32;100.00;100037.69;4936460;29;20271;-64
2023/10/28 01:11:54;;;;;;;10.43;8.37;;;;;;;-1.27;100.00;100046.88;4952939;29;20074;-63
2023/10/28 01:14:22;;;;;;;9.77;7.00;;;;;;;-1.20;100.00;100042.06;4953226;29;20235;-62
2023/10/28 01:16:49;;;;;;;12.25;8.07;;;;;;;-1.36;100.00;100018.78;4953054;29;20039;-64
2023/10/28 01:19:15;;;;;;;10.13;7.20;;;;;;;-1.25;100.00;100044.16;4953836;28;20039;-66
2023/10/28 01:21:42;;;;;;;12.47;7.17;;;;;;;-1.38;100.00;100025.06;4956684;29;20282;-65
2023/10/28 01:24:08;;;;;;;11.57;7.97;;;;;;;-1.23;100.00;100044.91;4957002;29;20283;-64
2023/10/28 01:26:34;;;;;;;11.33;7.77;;;;;;;-1.63;100.00;99979.72;4956705;29;20456;-64
2023/10/28 01:29:00;;;;;;;10.50;7.53;;;;;;;-1.44;100.00;100010.66;4956438;29;20349;-64
2023/10/28 01:31:27;;;;;;;11.20;7.03;;;;;;;-1.27;100.00;100033.81;4939093;29;20658;-63
2023/10/28 01:33:52;;;;;;;14.80;7.37;;;;;;;-1.31;100.00;100027.16;4956697;29;20298;-65
2023/10/28 01:36:18;;;;;;;11.40;8.13;;;;;;;-1.37;100.00;100022.34;4956815;29;20742;-65
2023/10/28 01:38:44;;;;;;;11.43;7.43;;;;;;;-1.31;100.00;100036.75;4956287;29;20082;-63
2023/10/28 01:41:13;;;;;;;11.30;8.43;;;;;;;-1.37;100.00;100017.13;4956418;29;20047;-64
2023/10/28 01:43:44;;;;;;;;;;;;;;;-1.26;100.00;100032.03;4956719;29;20510;-63
2023/10/28 01:46:10;;;;;;;9.60;7.03;;;;;;;-1.30;100.00;100028.81;4956205;29;19934;-66
2023/10/28 01:48:35;;;;;;;12.33;7.37;;;;;;;-1.33;100.00;100022.97;4955842;29;20422;-66
2023/10/28 01:51:01;;;;;;;13.23;8.83;;;;;;;-1.37;100.00;100017.13;4956350;29;20054;-64
2023/10/28 01:53:27;;;;;;;9.40;6.70;;;;;;;-1.35;100.00;100007.41;4956484;29;20387;-63
2023/10/28 01:55:52;;;;;;;11.73;7.87;;;;;;;-1.26;100.00;100018.97;4956143;29;20079;-64
2023/10/28 01:58:18;;;;;;;14.20;8.47;;;;;;;-1.37;100.00;99995.38;4955749;29;20491;-64
2023/10/28 02:00:44;;;;;;;12.57;8.43;;;;;;;-1.47;100.00;99976.88;4955747;29;20055;-63
2023/10/28 02:03:11;;;;;;;10.50;7.40;;;;;;;-1.37;100.00;99998.00;4955424;29;20378;-64
2023/10/28 02:05:40;;;;;;;10.37;8.07;;;;;;;-1.47;100.00;99986.50;4955771;29;20035;-63
2023/10/28 02:08:06;;;;;;;9.32;6.90;;;;;;;-1.27;100.00;100001.63;4955447;29;20623;-66
2023/10/28 02:10:33;;;;;;;10.43;7.27;;;;;;;-1.26;100.00;100000.69;4955917;29;20039;-64
2023/10/28 02:12:58;;;;;;;10.40;8.00;;;;;;;-1.17;100.00;99999.22;4938761;29;20293;-62
2023/10/28 02:15:25;;;;;;;11.43;7.10;;;;;;;-1.32;100.00;99988.91;4955649;29;20754;-64
2023/10/28 02:17:51;;;;;;;12.10;7.50;;;;;;;-1.38;100.00;99983.28;4939338;29;20043;-63
2023/10/28 02:20:37;;;;;;;17.30;9.63;;;;;;;-1.32;100.00;99988.91;4941971;29;20290;-63
2023/10/28 02:23:04;;;;;;;18.07;9.43;;;;;;;-1.37;100.00;99977.94;4955709;29;20322;-65
2023/10/28 02:25:29;;;;;;;13.37;8.33;;;;;;;-1.42;100.00;99966.16;4955406;29;20325;-64
2023/10/28 02:27:55;;;;;;;14.90;8.03;;;;;;;-1.40;100.00;99974.72;4922601;29;20263;-63
2023/10/28 02:30:20;;;;;;;17.77;9.73;;;;;;;-1.44;100.00;99957.59;4937996;29;20493;-63
2023/10/28 02:32:46;;;;;;;15.73;9.73;;;;;;;-1.23;100.00;99987.41;4957088;29;20047;-64
2023/10/28 02:35:11;;;;;;;12.87;7.87;;;;;;;-1.25;100.00;99994.53;4956640;29;20117;-64
2023/10/28 02:37:39;;;;;;;14.77;8.63;;;;;;;-1.36;100.00;99963.94;4957612;29;20070;-63
2023/10/28 02:40:08;;;;;;;13.20;8.50;;;;;;;-1.26;100.00;99982.41;4957369;29;20177;-64
2023/10/28 02:42:34;;;;;;;16.43;10.17;;;;;;;-1.40;100.00;99961.66;4956886;29;20279;-64
2023/10/28 02:45:00;;;;;;;9.80;7.40;;;;;;;-1.35;100.00;99973.44;4957989;29;20271;-65
2023/10/28 02:47:25;;;;;;;10.07;6.67;;;;;;;-1.35;100.00;99977.84;4955830;29;20646;-64
2023/10/28 02:49:51;;;;;;;10.93;7.50;;;;;;;-1.32;100.00;99972.41;4955421;29;20051;-64
2023/10/28 02:52:17;;;;;;;9.10;6.67;;;;;;;-1.26;100.00;99974.56;4954899;29;20126;-64
2023/10/28 02:54:42;;;;;;;8.93;6.57;;;;;;;-1.35;100.00;99949.94;4937521;29;20035;-63
2023/10/28 02:57:08;;;;;;;13.67;8.10;;;;;;;-1.27;100.00;99967.69;4954807;29;20474;-65
2023/10/28 02:59:34;;;;;;;12.80;8.13;;;;;;;-1.52;100.00;99916.31;4954871;29;20090;-65
2023/10/28 03:02:00;;;;;;;9.27;7.07;;;;;;;-1.37;100.00;99949.22;4954716;29;20047;-63
2023/10/28 03:04:25;;;;;;;12.03;7.53;;;;;;;-1.41;100.00;99941.69;4954434;29;20066;-64
2023/10/28 03:06:51;;;;;;;9.17;6.93;;;;;;;-1.42;100.00;99953.09;4954692;29;20975;-64
2023/10/28 03:09:17;;;;;;;10.93;7.83;;;;;;;-1.45;100.00;99940.22;4954606;29;20129;-64
2023/10/28 03:11:42;;;;;;;13.57;8.70;;;;;;;-1.49;100.00;99941.38;4954308;29;20717;-63
2023/10/28 03:14:08;;;;;;;11.07;8.50;;;;;;;-1.34;100.00;99963.84;4956048;29;20042;-65
2023/10/28 03:16:33;;;;;;;12.80;7.83;;;;;;;-1.39;100.00;99952.88;4956686;29;20085;-64
2023/10/28 03:18:59;;;;;;;9.37;7.70;;;;;;;-1.35;100.00;99957.78;4956975;29;20050;-65
2023/10/28 03:21:25;;;;;;;10.30;7.67;;;;;;;-1.42;100.00;99940.88;4956033;29;20118;-65
2023/10/28 03:23:50;;;;;;;8.00;6.50;;;;;;;-1.31;100.00;99958.38;4937965;29;20035;-64
2023/10/28 03:26:16;;;;;;;11.07;6.60;;;;;;;-1.24;100.00;99954.41;4937733;29;20042;-65
2023/10/28 03:28:42;;;;;;;10.57;7.03;;;;;;;-1.37;100.00;99933.53;4954390;29;20039;-64
2023/10/28 03:31:12;;;;;;;9.73;8.00;;;;;;;-1.33;100.00;99947.22;4937090;29;20141;-66
2023/10/28 03:33:39;;;;;;;11.33;7.90;;;;;;;-1.31;100.00;99947.94;4954535;29;20529;-63
2023/10/28 03:36:06;;;;;;;9.73;7.60;;;;;;;-1.40;100.00;99927.69;4954363;29;20321;-64
2023/10/28 03:38:35;;;;;;;10.40;8.07;;;;;;;-1.44;100.00;99921.84;4954393;29;20330;-64
2023/10/28 03:41:08;;;;;;;10.43;7.13;;;;;;;-1.27;100.00;99952.00;4953993;29;20796;-64
2023/10/28 03:43:33;;;;;;;9.67;8.30;;;;;;;-1.36;100.00;99932.59;4953830;28;20274;-66
2023/10/28 03:45:59;;;;;;;9.10;6.87;;;;;;;-1.23;100.00;99952.63;4954037;29;20267;-63
2023/10/28 03:48:24;;;;;;;10.53;7.80;;;;;;;-1.25;100.00;99947.50;4953860;29;20035;-64
2023/10/28 03:50:57;;;;;;;11.97;7.90;;;;;;;-1.32;100.00;99935.81;4953744;29;20050;-64
2023/10/28 03:53:22;;;;;;;10.43;8.00;;;;;;;-1.30;100.00;99939.16;4954042;29;20039;-62
2023/10/28 03:55:48;;;;;;;11.00;7.37;;;;;;;-1.23;100.00;99950.84;4954091;29;20274;-63
2023/10/28 03:58:13;;;;;;;11.57;7.80;;;;;;;-1.19;100.00;99946.22;4953775;29;20384;-64
2023/10/28 04:00:39;;;;;;;8.87;6.80;;;;;;;-1.17;100.00;99939.97;4953613;29;20026;-67
2023/10/28 04:03:05;;;;;;;10.83;7.20;;;;;;;-1.33;100.00;99914.09;4953866;29;20413;-64
2023/10/28 04:05:31;;;;;;;9.13;7.43;;;;;;;-1.29;100.00;99933.00;4953866;29;20142;-63
2023/10/28 04:07:57;;;;;;;10.37;7.13;;;;;;;-1.56;100.00;99871.31;4936425;29;20856;-64
2023/10/28 04:10:23;;;;;;;9.70;6.67;;;;;;;-1.37;100.00;99919.66;4936807;29;20334;-65
2023/10/28 04:12:48;;;;;;;14.07;7.80;;;;;;;-1.28;100.00;99934.66;4953671;29;20078;-64
2023/10/28 04:15:16;;;;;;;9.33;7.70;;;;;;;-1.27;100.00;99931.94;4936566;29;20035;-64
2023/10/28 04:17:42;;;;;;;10.20;7.07;;;;;;;-1.46;100.00;99902.81;4953830;29;20207;-65
2023/10/28 04:20:10;;;;;;;9.70;7.30;;;;;;;-1.27;100.00;99918.03;4936310;29;20386;-65
2023/10/28 04:22:36;;;;;;;8.70;6.43;;;;;;;-1.32;100.00;99909.69;4953423;29;20039;-64
2023/10/28 04:25:03;;;;;;;9.63;6.90;;;;;;;-1.28;100.00;99916.38;4936569;29;20309;-63
2023/10/28 04:27:29;;;;;;;9.53;7.20;;;;;;;-1.33;100.00;99902.81;4954737;29;20278;-63
2023/10/28 04:29:54;;;;;;;9.53;6.90;;;;;;;-1.50;100.00;99874.41;4959359;28;20329;-63
2023/10/28 04:32:22;;;;;;;9.07;6.73;;;;;;;-1.28;100.00;99901.53;4958594;29;20048;-64
2023/10/28 04:34:51;;;;;;;9.55;7.32;;;;;;;-1.28;100.00;99895.47;4960083;29;20079;-64
2023/10/28 04:37:19;;;;;;;13.57;7.38;;;;;;;-1.23;100.00;99905.59;4956683;29;20049;-64
2023/10/28 04:39:45;;;;;;;12.32;7.18;;;;;;;-1.33;100.00;99897.59;4936981;29;20114;-65
2023/10/28 04:42:10;;;;;;;10.13;7.57;;;;;;;-1.30;100.00;99905.22;4953724;29;20231;-63
2023/10/28 04:44:36;;;;;;;12.27;7.23;;;;;;;-1.54;100.00;99854.69;4953718;29;20035;-64
2023/10/28 04:47:01;;;;;;;10.27;7.20;;;;;;;-1.23;100.00;99903.81;4955388;29;20130;-64
2023/10/28 04:49:31;;;;;;;8.77;6.90;;;;;;;-1.33;100.00;99897.59;4954939;29;20130;-65
2023/10/28 04:51:56;;;;;;;8.53;6.57;;;;;;;-1.30;100.00;99897.38;4953487;29;20481;-64
2023/10/28 04:54:22;;;;;;;9.97;8.67;;;;;;;-1.17;100.00;99907.78;4954775;28;20267;-64
2023/10/28 04:56:51;;;;;;;9.73;7.20;;;;;;;-1.31;100.00;99890.47;4957464;29;20105;-65
2023/10/28 04:59:17;;;;;;;9.32;6.10;;;;;;;-1.26;100.00;99894.44;4957366;29;20302;-63
2023/10/28 05:01:42;;;;;;;13.73;6.87;;;;;;;-1.18;100.00;99904.31;4957502;29;20046;-65
2023/10/28 05:04:11;;;;;;;8.87;6.77;;;;;;;-1.25;100.00;99890.88;4940338;29;20094;-64
2023/10/28 05:06:36;;;;;;;9.68;6.68;;;;;;;-1.22;100.00;99884.59;4956804;29;20652;-64
2023/10/28 05:09:03;;;;;;;10.10;7.13;;;;;;;-1.19;100.00;99900.03;4957139;29;20066;-65
2023/10/28 05:11:29;;;;;;;9.47;7.00;;;;;;;-1.15;100.00;99900.69;4958195;29;20134;-64
2023/10/28 05:13:54;;;;;;;11.20;7.03;;;;;;;-1.29;100.00;99880.75;4941674;29;20267;-64
2023/10/28 05:16:20;;;;;;;8.20;6.47;;;;;;;-1.18;100.00;99904.31;4958107;29;20483;-63
2023/10/28 05:18:46;;;;;;;9.13;6.87;;;;;;;-1.18;100.00;99899.09;4941302;29;20039;-63
2023/10/28 05:21:13;;;;;;;8.33;6.57;;;;;;;-1.13;100.00;99896.19;4958382;29;20035;-62
2023/10/28 05:23:39;;;;;;;11.33;7.23;;;;;;;-1.14;100.00;99897.97;4959635;29;20298;-63
2023/10/28 05:26:04;;;;;;;9.10;7.47;;;;;;;-1.15;100.00;99893.69;4960768;29;20282;-64
2023/10/28 05:28:31;;;;;;;7.37;6.20;;;;;;;-1.17;100.00;99889.47;4959765;29;20274;-63
2023/10/28 05:30:57;;;;;;;7.63;6.40;;;;;;;-1.13;100.00;99901.41;4942659;29;20058;-65
2023/10/28 05:33:23;;;;;;;8.50;6.77;;;;;;;-1.03;100.00;99915.47;4958361;29;20275;-65
2023/10/28 05:35:49;;;;;;;10.00;8.00;;;;;;;-1.06;100.00;99895.63;4957738;29;20707;-63
2023/10/28 05:38:15;;;;;;;7.13;6.03;;;;;;;-0.88;100.00;99913.53;4957591;29;20301;-64
2023/10/28 05:40:41;;;;;;;8.80;6.00;;;;;;;-0.92;100.00;99902.47;4939497;29;20393;-64
2023/10/28 05:43:06;;;;;;;9.57;7.17;;;;;;;-1.06;100.00;99890.41;4957027;29;20047;-63
2023/10/28 05:45:32;;;;;;;9.60;8.57;;;;;;;-1.18;100.00;99883.41;4959943;29;20043;-65
2023/10/28 05:47:57;;;;;;;8.17;6.63;;;;;;;-1.13;100.00;99889.19;4960139;29;20039;-63
2023/10/28 05:50:23;;;;;;;8.73;6.13;;;;;;;-1.08;100.00;99887.06;4959530;29;20086;-63
2023/10/28 05:52:49;;;;;;;8.17;6.30;;;;;;;-0.88;100.00;99908.31;4959887;29;20067;-64
2023/10/28 05:55:15;;;;;;;6.80;6.10;;;;;;;-0.93;100.00;99892.94;4958963;29;20750;-65
2023/10/28 05:57:41;;;;;;;10.80;7.43;;;;;;;-0.87;100.00;99892.50;4958792;29;20130;-62
2023/10/28 06:00:11;;;;;;;13.00;6.87;;;;;;;-0.74;100.00;99910.78;4960665;29;20039;-63
2023/10/28 06:02:37;;;;;;;10.03;6.93;;;;;;;-0.69;100.00;99912.09;4959917;29;20538;-64
2023/10/28 06:05:04;;;;;;;9.57;6.33;;;;;;;-0.82;100.00;99881.75;4960880;28;20298;-65
2023/10/28 06:07:30;;;;;;;8.93;7.03;;;;;;;-0.83;100.00;99880.06;4960868;29;20278;-64
2023/10/28 06:09:56;;;;;;;8.67;6.33;;;;;;;-0.95;100.00;99882.63;4961599;29;20762;-65
2023/10/28 06:12:22;;;;;;;6.63;5.73;;;;;;;-0.89;100.00;99893.56;4959792;29;20346;-65
2023/10/28 06:14:47;;;;;;;9.30;6.17;;;;;;;-0.94;100.00;99889.50;4959503;29;20035;-64
2023/10/28 06:17:15;;;;;;;12.57;7.00;;;;;;;-0.79;100.00;99903.25;4958004;29;20070;-65
2023/10/28 06:19:41;;;;;;;8.82;6.38;;;;;;;-0.81;100.00;99905.16;4956316;29;20391;-64
2023/10/28 06:22:07;;;;;;;10.80;6.50;;;;;;;-0.87;100.00;99891.66;4956988;29;20039;-65
2023/10/28 06:24:33;;;;;;;8.10;6.00;;;;;;;-1.08;100.00;99867.94;4956498;29;20418;-63
2023/10/28 06:26:59;;;;;;;10.10;6.73;;;;;;;-1.01;100.00;99882.22;4956155;29;20274;-64
2023/10/28 06:29:25;;;;;;;10.60;7.13;;;;;;;-1.01;100.00;99888.28;4956016;29;20078;-64
2023/10/28 06:31:51;;;;;;;8.00;6.73;;;;;;;-0.94;100.00;99897.34;4937916;29;20063;-62
2023/10/28 06:34:17;;;;;;;9.53;6.37;;;;;;;-1.01;100.00;99903.97;4955686;29;20286;-66
2023/10/28 06:36:43;;;;;;;8.30;5.70;;;;;;;-1.18;100.00;99885.19;4955780;29;20703;-63
2023/10/28 06:39:11;;;;;;;7.70;6.43;;;;;;;-1.09;100.00;99890.63;4955519;29;20047;-64
2023/10/28 06:41:37;;;;;;;11.38;6.70;;;;;;;-1.05;100.00;99897.28;4955903;29;20082;-64
2023/10/28 06:44:05;;;;;;;8.13;6.40;;;;;;;-1.14;100.00;99884.91;4955843;29;20047;-64
2023/10/28 06:46:32;;;;;;;12.70;6.85;;;;;;;-1.11;100.00;99902.97;4955565;29;20086;-63
2023/10/28 06:48:58;;;;;;;10.70;6.90;;;;;;;-1.53;100.00;99827.63;4938153;29;20045;-64
2023/10/28 06:51:24;;;;;;;10.53;6.40;;;;;;;-1.17;100.00;99897.31;4955616;29;20258;-65
2023/10/28 06:53:49;;;;;;;11.13;7.43;;;;;;;-1.27;100.00;99884.09;4955340;29;20043;-64
2023/10/28 06:56:15;;;;;;;6.80;5.77;;;;;;;-1.27;100.00;99879.69;4955169;29;20491;-64
2023/10/28 06:58:41;;;;;;;11.20;7.60;;;;;;;-1.21;100.00;99882.81;4937853;29;20045;-62
2023/10/28 07:01:09;;;;;;;7.80;6.47;;;;;;;-1.16;100.00;99886.75;4954605;29;20031;-65
2023/10/28 07:03:37;;;;;;;12.55;7.03;;;;;;;-1.14;100.00;99884.91;4954972;29;20283;-65
2023/10/28 07:06:04;;;;;;;11.67;7.23;;;;;;;-1.12;100.00;99896.06;4955183;29;20833;-64
2023/10/28 07:08:30;;;;;;;10.63;7.20;;;;;;;-1.08;100.00;99896.69;4954684;29;20255;-65
2023/10/28 07:10:56;;;;;;;9.07;6.77;;;;;;;-1.07;100.00;99904.41;4954766;29;20344;-65
2023/10/28 07:13:21;;;;;;;9.30;5.63;;;;;;;-1.10;100.00;99902.03;4954610;29;20329;-67
2023/10/28 07:15:47;;;;;;;9.63;6.43;;;;;;;-1.15;100.00;99911.97;4954523;29;20035;-65
2023/10/28 07:18:13;;;;;;;8.23;6.13;;;;;;;-1.18;100.00;99899.09;4954288;28;20042;-67
2023/10/28 07:20:40;;;;;;;10.53;6.30;;;;;;;-1.27;100.00;99889.31;4954425;29;20035;-63
2023/10/28 07:23:06;;;;;;;8.97;6.17;;;;;;;-1.11;100.00;99902.13;4954683;29;20279;-64
2023/10/28 07:25:31;;;;;;;7.30;5.70;;;;;;;-1.11;100.00;99902.13;4954541;29;20270;-64
2023/10/28 07:27:57;;;;;;;9.73;7.00;;;;;;;-1.07;100.00;99917.47;4954870;29;20031;-63
2023/10/28 07:30:23;;;;;;;11.67;6.87;;;;;;;-0.93;100.00;99926.94;4956654;28;20042;-67
2023/10/28 07:32:50;;;;;;;10.30;6.23;;;;;;;-0.88;100.00;99919.59;4941213;29;20130;-63
2023/10/28 07:35:16;;;;;;;7.00;5.97;;;;;;;-0.68;100.00;99926.84;4960587;29;20322;-66
2023/10/28 07:37:42;;;;;;;10.67;6.43;;;;;;;-0.65;100.00;99931.00;4960370;29;20310;-63
2023/10/28 07:40:11;;;;;;;8.33;6.10;;;;;;;-0.59;100.00;99929.72;4960396;29;20797;-67
2023/10/28 07:42:36;;;;;;;10.27;5.78;;;;;;;-0.52;100.00;99938.81;4960266;29;20498;-65
2023/10/28 07:45:02;;;;;;;7.90;6.30;;;;;;;-0.57;100.00;99909.56;4954762;29;20098;-66
2023/10/28 07:47:33;;;;;;;11.63;7.07;;;;;;;-0.34;100.00;99924.34;4927037;29;20051;-65
2023/10/28 07:49:59;;;;;;;8.88;5.75;;;;;;;-0.28;100.00;99923.94;4926866;29;20037;-64
2023/10/28 07:52:25;;;;;;;8.00;6.03;;;;;;;-0.27;100.00;99919.53;4942560;29;20074;-66
2023/10/28 07:54:50;;;;;;;7.47;5.47;;;;;;;-0.15;100.00;99927.28;4954204;29;20039;-65
2023/10/28 07:57:16;;;;;;;9.43;6.40;;;;;;;0.02;100.00;99935.66;4953880;29;20494;-63
2023/10/28 07:59:42;;;;;;;9.13;5.87;;;;;;;0.02;100.00;99920.78;4937035;29;20117;-65
2023/10/28 08:02:07;;;;;;;11.57;6.70;;;;;;;0.17;100.00;99924.84;4937343;29;20042;-64
2023/10/28 08:04:32;;;;;;;6.67;5.00;;;;;;;0.20;100.00;99916.75;4955073;29;20394;-65
2023/10/28 08:06:58;;;;;;;7.87;6.17;;;;;;;0.43;100.00;99935.97;4954700;29;20039;-65
2023/10/28 08:09:24;;;;;;;10.90;7.00;;;;;;;0.28;100.00;99906.53;4954175;29;20036;-63
2023/10/28 08:11:50;;;;;;;8.03;6.17;;;;;;;0.22;100.00;99909.63;4953478;29;20035;-64
2023/10/28 08:14:16;;;;;;;7.93;5.50;;;;;;;0.27;100.00;99936.28;4953914;29;20073;-63
2023/10/28 08:16:42;;;;;;;8.53;6.17;;;;;;;0.02;100.00;99899.84;4955085;29;20314;-63
2023/10/28 08:19:08;;;;;;;10.60;7.30;;;;;;;0.26;100.00;99926.75;4956654;29;20035;-65
2023/10/28 08:21:34;;;;;;;7.37;5.13;;;;;;;0.43;100.00;99935.97;4956501;29;20382;-65
2023/10/28 08:24:00;;;;;;;11.77;7.13;;;;;;;0.50;100.00;99915.34;4936736;29;20039;-64
2023/10/28 08:26:26;;;;;;;10.73;5.50;;;;;;;0.73;100.00;99935.38;4920831;29;20282;-64
2023/10/28 08:28:52;;;;;;;5.40;4.83;;;;;;;0.77;100.00;99936.78;4937114;29;20082;-65
2023/10/28 08:31:18;;;;;;;6.67;5.37;;;;;;;0.72;100.00;99930.25;4957766;28;20055;-65
2023/10/28 08:33:43;;;;;;;6.73;5.87;;;;;;;0.81;100.00;99929.50;4940592;29;20290;-64
2023/10/28 08:36:10;;;;;;;7.10;5.20;;;;;;;0.85;100.00;99921.28;4958459;29;20451;-65
2023/10/28 08:38:36;;;;;;;8.53;5.80;;;;;;;1.05;100.00;99942.47;4959808;29;20038;-64
2023/10/28 08:41:03;;;;;;;8.97;6.13;;;;;;;0.85;100.00;99905.56;4940505;29;20275;-66
2023/10/28 08:43:33;;;;;;;7.93;5.70;;;;;;;1.01;100.00;99946.31;4958245;29;20286;-63
2023/10/28 08:46:01;;;;;;;6.67;5.23;;;;;;;0.94;100.00;99935.47;4960521;29;20269;-66
2023/10/28 08:48:27;;;;;;;6.67;5.13;;;;;;;0.90;100.00;99924.41;4960227;29;20290;-65
2023/10/28 08:50:55;;;;;;;6.17;5.27;;;;;;;0.94;100.00;99940.72;4961893;29;20750;-66
2023/10/28 08:53:21;;;;;;;7.88;5.95;;;;;;;0.88;100.00;99939.41;4950540;29;20043;-65
2023/10/28 08:55:50;;;;;;;7.37;5.60;;;;;;;0.97;100.00;99937.84;4958869;29;20082;-64
2023/10/28 08:58:19;;;;;;;10.70;7.70;;;;;;;1.14;100.00;99928.63;4957342;29;20379;-65
2023/10/28 09:00:47;;;;;;;10.07;6.47;;;;;;;1.23;100.00;99930.53;4957710;29;20275;-66
2023/10/28 09:03:14;;;;;;;6.80;6.03;;;;;;;1.23;100.00;99931.34;4957111;29;20126;-65
2023/10/28 09:05:41;;;;;;;6.50;4.73;;;;;;;0.99;100.00;99912.34;4939788;29;20043;-64
2023/10/28 09:08:07;;;;;;;10.07;5.50;;;;;;;1.03;100.00;99913.75;4956998;29;20322;-69
2023/10/28 09:10:34;;;;;;;6.03;4.67;;;;;;;1.13;100.00;99937.44;4939835;29;20365;-63
2023/10/28 09:13:06;;;;;;;7.93;5.80;;;;;;;0.80;100.00;99881.50;4956894;29;20046;-66
2023/10/28 09:15:33;;;;;;;6.97;5.70;;;;;;;0.83;100.00;99889.13;4956671;29;20321;-65
2023/10/28 09:18:01;;;;;;;7.13;5.93;;;;;;;1.10;100.00;99941.16;4939293;29;20782;-64
2023/10/28 09:20:27;;;;;;;6.70;4.73;;;;;;;1.15;100.00;99938.97;4956462;29;20418;-65
2023/10/28 09:22:52;;;;;;;9.47;5.27;;;;;;;1.11;100.00;99936.72;4956567;29;20353;-65
2023/10/28 09:25:18;;;;;;;13.67;5.27;;;;;;;1.27;100.00;99947.69;4939637;29;20118;-65
2023/10/28 09:27:45;;;;;;;6.13;4.90;;;;;;;1.22;100.00;99928.88;4956385;29;20050;-64
2023/10/28 09:30:11;;;;;;;7.00;4.60;;;;;;;1.17;100.00;99921.38;4956671;28;20283;-67
2023/10/28 09:32:38;;;;;;;6.50;4.37;;;;;;;1.28;100.00;99945.88;4956594;29;20156;-64
2023/10/28 09:35:08;;;;;;;5.53;4.53;;;;;;;1.12;100.00;99913.00;4939071;29;20271;-65
2023/10/28 09:37:38;;;;;;;6.27;4.40;;;;;;;1.31;100.00;99919.41;4956268;29;20367;-63
2023/10/28 09:40:06;;;;;;;5.20;4.40;;;;;;;1.57;100.00;99938.28;4955634;28;20769;-66
2023/10/28 09:45:38;;;;;;;8.43;5.13;;;;;;;1.61;98.45;99929.19;4938988;29;20290;-63
2023/10/28 09:48:13;;;;;;;5.30;4.80;;;;;;;1.48;98.71;99924.13;4939144;29;20266;-63
2023/10/28 09:50:52;;;;;;;6.73;5.40;;;;;;;1.34;99.96;99927.84;4956495;29;20715;-65
2023/10/28 09:53:49;;;;;;;6.30;5.35;;;;;;;1.28;100.00;99917.88;4923339;29;20274;-66
2023/10/28 09:56:25;;;;;;;5.27;4.47;;;;;;;1.34;100.00;99917.38;4929407;29;20041;-64
2023/10/28 09:59:00;;;;;;;6.00;4.83;;;;;;;1.44;99.98;99935.81;4956340;29;20295;-65
2023/10/28 10:01:37;;;;;;;5.30;4.27;;;;;;;1.33;100.00;99928.81;4938925;29;20293;-65
2023/10/28 10:04:29;;;;;;;6.27;5.10;;;;;;;1.29;99.78;99935.28;4955973;29;20267;-63
2023/10/28 10:06:55;;;;;;;6.60;4.67;;;;;;;1.03;99.73;99923.41;4938191;29;20801;-65
2023/10/28 10:09:20;;;;;;;7.33;4.80;;;;;;;0.86;100.00;99928.19;4938941;29;20312;-65
2023/10/28 10:11:49;;;;;;;6.87;4.97;;;;;;;0.79;100.00;99939.28;4956425;29;20320;-64
2023/10/28 10:14:17;;;;;;;6.50;5.07;;;;;;;0.76;100.00;99942.97;4955985;29;20035;-65
2023/10/28 10:17:17;;;;;;;5.82;4.57;;;;;;;0.72;100.00;99946.81;4956080;29;20035;-65
2023/10/28 10:19:43;;;;;;;6.20;4.10;;;;;;;0.67;100.00;99943.72;4955770;29;20107;-64
2023/10/28 10:22:08;;;;;;;6.80;4.50;;;;;;;0.59;100.00;99930.38;4955743;29;20266;-64
2023/10/28 10:24:34;;;;;;;5.07;4.50;;;;;;;0.68;100.00;99929.66;4955500;29;20039;-65
2023/10/28 10:27:02;;;;;;;5.23;4.40;;;;;;;0.73;100.00;99932.75;4938507;29;20035;-63
2023/10/28 10:29:40;;;;;;;5.97;5.00;;;;;;;0.79;100.00;99931.41;4955491;29;20043;-65
2023/10/28 10:32:16;;;;;;;6.73;4.97;;;;;;;0.77;100.00;99928.91;4955536;29;20058;-65
2023/10/28 10:34:45;;;;;;;5.47;4.63;;;;;;;0.66;100.00;99920.25;4938723;29;20293;-64
2023/10/28 10:37:24;;;;;;;8.45;5.00;;;;;;;0.71;100.00;99929.41;4957458;29;20293;-64
2023/10/28 10:39:51;;;;;;;6.60;4.50;;;;;;;0.76;100.00;99932.50;4958273;29;20043;-63
2023/10/28 10:42:17;;;;;;;7.73;5.70;;;;;;;0.83;100.00;99938.09;4956229;29;20267;-66
2023/10/28 10:44:43;;;;;;;5.53;4.50;;;;;;;0.58;100.00;99908.59;4955170;29;20679;-64
2023/10/28 10:47:10;;;;;;;5.63;5.00;;;;;;;0.62;100.00;99919.66;4955503;29;20749;-65
2023/10/28 10:49:38;;;;;;;5.77;4.77;;;;;;;0.77;100.00;99934.16;4955240;29;20517;-65
2023/10/28 10:52:05;;;;;;;5.18;4.68;;;;;;;0.82;100.00;99928.56;4937658;29;20267;-65
2023/10/28 10:54:32;;;;;;;6.27;5.20;;;;;;;0.87;100.00;99937.75;4955512;29;20452;-65
2023/10/28 10:56:58;;;;;;;5.97;4.50;;;;;;;0.83;100.00;99920.56;4956398;29;20675;-64
2023/10/28 10:59:29;;;;;;;5.03;4.33;;;;;;;0.96;100.00;99932.72;4957570;29;20334;-64
2023/10/28 11:02:00;;;;;;;5.80;4.57;;;;;;;0.58;100.00;99878.94;4958206;29;20275;-63
2023/10/28 11:04:27;;;;;;;6.13;4.30;;;;;;;0.78;100.00;99919.28;4960341;29;20367;-64
2023/10/28 11:06:54;;;;;;;5.30;4.10;;;;;;;0.91;100.00;99931.31;4959949;29;20263;-63
2023/10/28 11:09:21;;;;;;;5.50;4.63;;;;;;;0.99;100.00;99940.34;4959204;29;20283;-67
2023/10/28 11:11:47;;;;;;;5.03;4.50;;;;;;;0.93;100.00;99929.41;4957693;29;20818;-64
2023/10/28 11:14:12;;;;;;;8.00;5.80;;;;;;;0.95;100.00;99931.91;4937902;29;20369;-63
2023/10/28 11:16:41;;;;;;;5.97;5.30;;;;;;;0.89;100.00;99927.97;4954712;29;20039;-64
2023/10/28 11:19:08;;;;;;;6.72;5.30;;;;;;;0.65;100.00;99906.31;4954876;29;20133;-63
2023/10/28 11:21:35;;;;;;;5.47;4.87;;;;;;;0.82;100.00;99947.75;4955182;29;20043;-65
2023/10/28 11:24:01;;;;;;;5.03;4.53;;;;;;;0.81;100.00;99946.06;4954193;29;20381;-63
2023/10/28 11:26:27;;;;;;;5.60;4.37;;;;;;;0.80;100.00;99926.06;4937361;29;20369;-64